createdAt,value
2019-01-21T00:03:56.985Z,100.00
2019-01-21T00:09:00.991Z,100.00
2019-01-21T00:14:06.128Z,100.00
2019-01-21T00:19:10.204Z,100.00
2019-01-21T00:24:14.616Z,99.04
2019-01-21T00:29:19.740Z,98.08
2019-01-21T00:34:23.701Z,99.29
2019-01-21T00:39:28.151Z,99.67
2019-01-21T00:44:32.030Z,99.23
2019-01-21T00:49:36.293Z,99.53
2019-01-21T00:54:40.211Z,100.00
2019-01-21T00:59:45.723Z,100.00
2019-01-21T01:04:50.258Z,100.00
2019-01-21T01:09:54.214Z,100.00
2019-01-21T01:14:58.287Z,100.00
2019-01-21T01:20:03.563Z,100.00
2019-01-21T01:25:09.452Z,99.62
2019-01-21T01:30:15.982Z,99.55
2019-01-21T01:35:20.204Z,99.67
2019-01-21T01:40:24.222Z,99.58
2019-01-21T01:45:28.384Z,100.00
2019-01-21T01:50:32.923Z,100.00
2019-01-21T01:55:37.919Z,100.00
2019-01-21T02:00:42.238Z,100.00
2019-01-21T02:05:46.237Z,100.00
2019-01-21T02:10:50.520Z,100.00
2019-01-21T02:15:55.818Z,100.00
2019-01-21T02:21:03.883Z,100.00
2019-01-21T02:26:18.751Z,100.00
2019-01-21T02:31:48.573Z,100.00
2019-01-21T02:37:25.804Z,100.00
2019-01-21T02:42:59.130Z,98.93
2019-01-21T02:48:34.128Z,100.00
2019-01-21T02:54:02.546Z,99.41
2019-01-21T02:59:25.450Z,98.85
2019-01-21T03:04:57.609Z,99.32
2019-01-21T03:10:37.628Z,99.05
2019-01-21T03:16:25.070Z,100.00
2019-01-21T03:22:24.135Z,100.00
2019-01-21T03:28:05.384Z,100.00
2019-01-21T03:33:32.173Z,100.00
2019-01-21T03:39:15.383Z,100.00
2019-01-21T03:45:07.587Z,100.00
2019-01-21T03:50:51.667Z,100.00
2019-01-21T03:56:00.437Z,100.00
2019-01-21T04:01:55.141Z,100.00
2019-01-21T04:07:06.330Z,100.00
2019-01-21T04:12:43.623Z,100.00
2019-01-21T04:18:30.634Z,100.00
2019-01-21T04:24:00.174Z,100.00
2019-01-21T04:29:37.779Z,100.00
2019-01-21T04:35:42.482Z,100.00
2019-01-21T04:41:24.183Z,100.00
2019-01-21T04:46:51.995Z,100.00
2019-01-21T04:52:15.798Z,100.00
2019-01-21T04:57:58.076Z,100.00
2019-01-21T05:03:15.618Z,100.00
2019-01-21T05:09:07.245Z,100.00
2019-01-21T05:14:51.096Z,100.00
2019-01-21T05:20:27.360Z,100.00
2019-01-21T05:26:07.900Z,100.00
2019-01-21T05:31:52.745Z,99.92
2019-01-21T05:38:00.935Z,100.00
2019-01-21T05:43:52.173Z,100.00
2019-01-21T05:49:42.495Z,100.00
2019-01-21T05:55:17.226Z,100.00
2019-01-21T06:01:15.865Z,100.00
2019-01-21T06:07:12.664Z,100.00
2019-01-21T06:12:52.550Z,100.00
2019-01-21T06:18:33.880Z,100.00
2019-01-21T06:23:48.336Z,100.00
2019-01-21T06:29:24.283Z,100.00
2019-01-21T06:35:00.866Z,100.00
2019-01-21T06:40:45.831Z,100.00
2019-01-21T06:46:24.961Z,100.00
2019-01-21T06:52:21.933Z,100.00
2019-01-21T06:57:56.082Z,100.00
2019-01-21T07:03:54.371Z,100.00
2019-01-21T07:09:33.743Z,100.00
2019-01-21T07:15:30.892Z,100.00
2019-01-21T07:21:25.929Z,100.00
2019-01-21T07:27:26.230Z,100.00
2019-01-21T07:33:23.630Z,100.00
2019-01-21T07:39:09.719Z,100.00
2019-01-21T07:44:40.792Z,100.00
2019-01-21T07:50:27.116Z,100.00
2019-01-21T07:56:19.145Z,100.00
2019-01-21T08:01:29.102Z,100.00
2019-01-21T08:06:43.325Z,100.00
2019-01-21T08:12:50.334Z,100.00
2019-01-21T08:18:27.224Z,100.00
2019-01-21T08:24:21.644Z,100.00
2019-01-21T08:29:58.984Z,100.00
2019-01-21T08:35:38.909Z,100.00
2019-01-21T08:41:14.264Z,100.00
2019-01-21T08:47:07.963Z,100.00
2019-01-21T08:52:59.373Z,100.00
2019-01-21T08:58:57.335Z,100.00
2019-01-21T09:04:39.747Z,100.00
2019-01-21T09:10:13.694Z,100.00
2019-01-21T09:15:43.943Z,100.00
2019-01-21T09:21:38.385Z,100.00
2019-01-21T09:27:17.969Z,100.00
2019-01-21T09:33:03.454Z,100.00
2019-01-21T09:38:53.728Z,100.00
2019-01-21T09:44:20.369Z,100.00
2019-01-21T09:49:23.688Z,99.77
2019-01-21T09:54:30.452Z,99.21
2019-01-21T09:59:35.801Z,96.21
2019-01-21T10:05:05.243Z,94.87
2019-01-21T10:10:45.321Z,95.80
2019-01-21T10:16:13.304Z,95.96
2019-01-21T10:21:49.832Z,97.38
2019-01-21T10:27:34.903Z,98.36
2019-01-21T10:33:13.392Z,96.74
2019-01-21T10:38:46.238Z,96.56
2019-01-21T10:44:28.496Z,95.58
2019-01-21T10:50:21.164Z,95.23
2019-01-21T10:55:52.949Z,93.21
2019-01-21T11:01:35.328Z,94.08
2019-01-21T11:07:33.317Z,95.51
2019-01-21T11:13:20.093Z,95.66
2019-01-21T11:19:14.269Z,96.14
2019-01-21T11:24:49.385Z,95.75
2019-01-21T11:30:21.837Z,95.66
2019-01-21T11:36:09.600Z,93.50
2019-01-21T11:41:30.418Z,93.86
2019-01-21T11:47:01.928Z,91.53
2019-01-21T11:52:40.062Z,91.28
2019-01-21T11:58:14.606Z,92.04
2019-01-21T12:03:24.703Z,90.54
2019-01-21T12:09:25.336Z,89.14
2019-01-21T12:15:07.881Z,90.18
2019-01-21T12:20:37.598Z,91.83
2019-01-21T12:26:05.775Z,93.81
2019-01-21T12:31:34.769Z,94.19
2019-01-21T12:36:49.472Z,94.70
2019-01-21T12:42:17.820Z,95.32
2019-01-21T12:47:42.978Z,95.17
2019-01-21T12:53:15.878Z,94.57
2019-01-21T12:58:51.323Z,94.87
2019-01-21T13:04:50.288Z,94.12
2019-01-21T13:10:52.313Z,93.66
2019-01-21T13:16:38.274Z,93.95
2019-01-21T13:22:18.253Z,91.60
2019-01-21T13:28:03.513Z,89.20
2019-01-21T13:33:30.457Z,87.49
2019-01-21T13:39:08.380Z,84.82
2019-01-21T13:45:07.837Z,85.16
2019-01-21T13:50:56.496Z,83.39
2019-01-21T13:56:41.744Z,82.33
2019-01-21T14:01:52.880Z,81.55
2019-01-21T14:07:41.055Z,82.81
2019-01-21T14:13:11.890Z,83.79
2019-01-21T14:18:57.929Z,85.17
2019-01-21T14:24:33.399Z,86.78
2019-01-21T14:30:07.382Z,87.77
2019-01-21T14:36:15.664Z,88.59
2019-01-21T14:42:07.257Z,89.94
2019-01-21T14:47:53.363Z,90.91
2019-01-21T14:53:08.474Z,92.20
2019-01-21T14:58:44.903Z,93.16
2019-01-21T15:04:36.901Z,93.70
2019-01-21T15:10:24.651Z,94.65
2019-01-21T15:16:15.596Z,95.00
2019-01-21T15:21:31.473Z,84.34
2019-01-21T15:27:12.181Z,83.19
2019-01-21T15:32:58.198Z,83.94
2019-01-21T15:38:29.491Z,80.88
2019-01-21T15:44:24.475Z,76.88
2019-01-21T15:49:48.592Z,76.71
2019-01-21T15:55:25.283Z,76.46
2019-01-21T16:00:59.889Z,76.45
2019-01-21T16:06:21.585Z,77.14
2019-01-21T16:11:53.602Z,79.07
2019-01-21T16:17:41.213Z,79.87
2019-01-21T16:23:14.266Z,83.90
2019-01-21T16:28:36.415Z,85.23
2019-01-21T16:34:19.277Z,84.50
2019-01-21T16:40:07.586Z,84.78
2019-01-21T16:45:12.622Z,81.84
2019-01-21T16:50:16.706Z,80.60
2019-01-21T16:55:21.761Z,80.69
2019-01-21T17:00:25.967Z,84.84
2019-01-21T17:05:32.314Z,87.93
2019-01-21T17:10:39.231Z,88.65
2019-01-21T17:15:42.446Z,87.17
2019-01-21T17:20:48.874Z,86.93
2019-01-21T17:26:00.915Z,83.18
2019-01-21T17:31:08.950Z,86.88
2019-01-21T17:36:12.980Z,87.48
2019-01-21T17:41:20.345Z,86.94
2019-01-21T17:46:24.475Z,86.59
2019-01-21T17:51:33.722Z,89.04
2019-01-21T17:56:34.988Z,90.02
2019-01-21T18:01:40.163Z,90.52
2019-01-21T18:06:44.640Z,90.90
2019-01-21T18:11:48.578Z,89.31
2019-01-21T18:16:52.758Z,88.68
2019-01-21T18:21:56.962Z,89.75
2019-01-21T18:27:02.157Z,89.02
2019-01-21T18:32:06.316Z,88.65
2019-01-21T18:37:11.494Z,88.62
2019-01-21T18:42:15.690Z,88.03
2019-01-21T18:47:19.787Z,88.37
2019-01-21T18:52:24.442Z,89.20
2019-01-21T18:57:28.704Z,89.18
2019-01-21T19:02:32.798Z,89.07
2019-01-21T19:07:38.747Z,88.69
2019-01-21T19:12:42.677Z,87.84
2019-01-21T19:17:46.824Z,87.72
2019-01-21T19:22:51.507Z,87.73
2019-01-21T19:27:55.727Z,87.55
2019-01-21T19:32:59.700Z,88.23
2019-01-21T19:38:03.831Z,88.78
2019-01-21T19:43:08.495Z,88.84
2019-01-21T19:48:13.156Z,88.38
2019-01-21T19:53:17.808Z,87.69
2019-01-21T19:58:21.811Z,87.28
2019-01-21T20:03:26.123Z,86.73
2019-01-21T20:08:30.851Z,86.07
2019-01-21T20:13:36.679Z,86.75
2019-01-21T20:18:46.539Z,86.92
2019-01-21T20:23:51.184Z,86.98
2019-01-21T20:28:56.901Z,87.51
2019-01-21T20:34:01.031Z,87.72
2019-01-21T20:39:08.077Z,85.91
2019-01-21T20:44:12.400Z,85.78
2019-01-21T20:49:16.393Z,85.36
2019-01-21T20:54:20.412Z,84.55
2019-01-21T20:59:24.384Z,83.03
2019-01-21T21:04:28.486Z,83.30
2019-01-21T21:09:34.420Z,82.72
2019-01-21T21:14:38.512Z,82.70
2019-01-21T21:19:42.669Z,81.73
2019-01-21T21:24:47.652Z,82.17
2019-01-21T21:29:52.695Z,82.32
2019-01-21T21:34:57.422Z,82.15
2019-01-21T21:40:08.426Z,82.08
2019-01-21T21:45:13.701Z,84.03
2019-01-21T21:50:21.067Z,84.19
2019-01-21T21:55:29.866Z,83.85
2019-01-21T22:00:34.544Z,83.91
2019-01-21T22:05:38.609Z,83.52
2019-01-21T22:10:43.632Z,83.53
2019-01-21T22:15:48.133Z,83.69
2019-01-21T22:20:52.326Z,83.68
2019-01-21T22:25:56.496Z,83.92
2019-01-21T22:31:00.554Z,85.12
2019-01-21T22:36:05.248Z,84.63
2019-01-21T22:41:09.622Z,84.84
2019-01-21T22:46:13.709Z,84.78
2019-01-21T22:51:17.623Z,85.13
2019-01-21T22:56:21.564Z,84.49
2019-01-21T23:01:31.304Z,85.79
2019-01-21T23:06:35.356Z,85.55
2019-01-21T23:11:40.160Z,85.34
2019-01-21T23:16:44.084Z,85.08
2019-01-21T23:21:48.190Z,85.09
2019-01-21T23:26:52.585Z,85.01
2019-01-21T23:31:56.682Z,85.41
2019-01-21T23:37:01.354Z,85.68
2019-01-21T23:42:05.420Z,86.77
2019-01-21T23:47:09.370Z,85.74
2019-01-21T23:52:13.335Z,86.29
2019-01-21T23:57:17.218Z,87.20
